createdAt,value
2022-10-11T00:01:12.073Z,13.99
2022-10-11T00:04:14.743Z,13.91
2022-10-11T00:07:18.574Z,13.92
2022-10-11T00:10:21.309Z,13.90
2022-10-11T00:13:23.575Z,13.78
2022-10-11T00:16:26.587Z,13.76
2022-10-11T00:19:28.833Z,13.74
2022-10-11T00:22:31.326Z,13.78
2022-10-11T00:25:33.611Z,13.77
2022-10-11T00:28:36.756Z,13.66
2022-10-11T00:31:40.412Z,13.74
2022-10-11T00:34:42.996Z,13.71
2022-10-11T00:37:45.260Z,13.69
2022-10-11T00:40:47.844Z,13.64
2022-10-11T00:44:12.225Z,13.46
2022-10-11T00:47:24.575Z,13.43
2022-10-11T00:50:29.629Z,13.51
2022-10-11T00:53:33.892Z,13.48
2022-10-11T00:56:38.778Z,13.34
2022-10-11T00:59:45.562Z,13.40
2022-10-11T01:02:48.251Z,13.27
2022-10-11T01:05:50.961Z,13.34
2022-10-11T01:08:53.337Z,13.29
2022-10-11T01:11:59.390Z,13.24
2022-10-11T01:15:16.991Z,13.23
2022-10-11T01:18:34.527Z,13.24
2022-10-11T01:21:52.178Z,13.07
2022-10-11T01:25:25.489Z,13.17
2022-10-11T01:28:39.735Z,13.13
2022-10-11T01:31:58.566Z,13.16
2022-10-11T01:35:42.948Z,13.16
2022-10-11T01:38:53.302Z,13.04
2022-10-11T01:42:00.079Z,13.12
2022-10-11T01:45:02.859Z,12.99
2022-10-11T01:48:10.968Z,13.10
2022-10-11T01:51:13.774Z,13.09
2022-10-11T01:54:24.871Z,12.98
2022-10-11T01:57:56.156Z,13.09
2022-10-11T02:01:08.291Z,13.07
2022-10-11T02:04:39.947Z,13.05
2022-10-11T02:08:11.022Z,13.02
2022-10-11T02:11:24.798Z,13.00
2022-10-11T02:14:30.891Z,12.98
2022-10-11T02:17:50.243Z,12.93
2022-10-11T02:20:53.807Z,12.88
2022-10-11T02:24:10.831Z,12.87
2022-10-11T02:27:15.239Z,12.83
2022-10-11T02:30:18.098Z,12.69
2022-10-11T02:34:14.099Z,12.76
2022-10-11T02:37:27.387Z,12.76
2022-10-11T02:40:33.398Z,12.66
2022-10-11T02:43:45.011Z,12.75
2022-10-11T02:46:50.311Z,12.74
2022-10-11T02:49:53.286Z,12.75
2022-10-11T02:52:55.505Z,12.62
2022-10-11T02:55:57.983Z,12.73
2022-10-11T02:59:00.255Z,12.53
2022-10-11T03:02:02.813Z,12.72
2022-10-11T03:05:05.429Z,12.59
2022-10-11T03:08:09.979Z,12.55
2022-10-11T03:11:12.188Z,12.64
2022-10-11T03:14:14.697Z,12.54
2022-10-11T03:17:35.588Z,12.64
2022-10-11T03:20:39.279Z,12.60
2022-10-11T03:23:42.749Z,12.62
2022-10-11T03:26:45.268Z,12.59
2022-10-11T03:29:47.476Z,12.63
2022-10-11T03:32:50.128Z,12.65
2022-10-11T03:35:52.316Z,12.64
2022-10-11T03:38:54.836Z,12.59
2022-10-11T03:41:57.125Z,12.74
2022-10-11T03:45:01.733Z,12.64
2022-10-11T03:48:04.563Z,12.79
2022-10-11T03:51:07.169Z,12.72
2022-10-11T03:54:09.552Z,12.83
2022-10-11T03:57:12.064Z,12.86
2022-10-11T04:00:14.412Z,12.86
2022-10-11T04:03:20.069Z,12.83
2022-10-11T04:06:22.271Z,12.83
2022-10-11T04:09:24.731Z,12.86
2022-10-11T04:12:26.988Z,12.89
2022-10-11T04:15:29.440Z,12.96
2022-10-11T04:18:31.680Z,12.89
2022-10-11T04:21:34.405Z,13.01
2022-10-11T04:24:36.699Z,13.00
2022-10-11T04:27:39.393Z,13.00
2022-10-11T04:30:41.677Z,12.90
2022-10-11T04:33:44.219Z,12.94
2022-10-11T04:36:49.873Z,12.94
2022-10-11T04:39:52.664Z,13.07
2022-10-11T04:42:54.901Z,13.08
2022-10-11T04:45:57.737Z,13.08
2022-10-11T04:49:00.193Z,13.04
2022-10-11T04:52:02.865Z,13.08
2022-10-11T04:55:05.640Z,13.08
2022-10-11T04:58:08.164Z,13.10
2022-10-11T05:01:11.309Z,12.96
2022-10-11T05:04:13.812Z,13.07
2022-10-11T05:07:16.496Z,13.04
2022-10-11T05:10:19.010Z,13.09
2022-10-11T05:13:21.308Z,12.95
2022-10-11T05:16:24.897Z,13.13
2022-10-11T05:19:27.217Z,13.16
2022-10-11T05:22:30.215Z,13.17
2022-10-11T05:25:32.432Z,13.19
2022-10-11T05:28:35.086Z,13.18
2022-10-11T05:31:37.348Z,13.24
2022-10-11T05:34:39.849Z,13.26
2022-10-11T05:37:44.760Z,13.20
2022-10-11T05:40:47.479Z,13.30
2022-10-11T05:43:49.796Z,13.36
2022-10-11T05:46:53.460Z,13.31
2022-10-11T05:49:55.724Z,13.37
2022-10-11T05:52:58.394Z,13.43
2022-10-11T05:56:01.166Z,13.60
2022-10-11T05:59:04.833Z,13.64
2022-10-11T06:02:07.456Z,13.73
2022-10-11T06:05:09.945Z,13.75
2022-10-11T06:08:12.167Z,13.94
2022-10-11T06:11:17.587Z,13.95
2022-10-11T06:14:20.072Z,14.05
2022-10-11T06:17:23.850Z,13.96
2022-10-11T06:20:27.068Z,14.00
2022-10-11T06:23:29.930Z,14.15
2022-10-11T06:26:32.600Z,14.10
2022-10-11T06:29:36.381Z,14.20
2022-10-11T06:32:38.637Z,14.38
2022-10-11T06:35:43.751Z,14.33
2022-10-11T06:38:46.226Z,14.22
2022-10-11T06:41:48.896Z,14.59
2022-10-11T06:44:57.067Z,14.65
2022-10-11T06:47:59.700Z,14.74
2022-10-11T06:51:01.977Z,14.89
2022-10-11T06:54:06.471Z,14.98
2022-10-11T06:57:08.848Z,15.02
2022-10-11T07:00:12.864Z,15.06
2022-10-11T07:03:15.201Z,15.32
2022-10-11T07:06:23.312Z,15.36
2022-10-11T07:09:25.576Z,15.58
2022-10-11T07:12:28.929Z,15.63
2022-10-11T07:15:32.141Z,15.86
2022-10-11T07:18:35.123Z,16.22
2022-10-11T07:21:37.332Z,16.51
2022-10-11T07:24:39.979Z,16.80
2022-10-11T07:27:42.201Z,16.97
2022-10-11T07:30:45.124Z,17.10
2022-10-11T07:33:47.621Z,17.08
2022-10-11T07:36:50.237Z,17.30
2022-10-11T07:39:52.464Z,17.46
2022-10-11T07:42:56.910Z,17.92
2022-10-11T07:46:04.443Z,19.22
2022-10-11T07:49:07.967Z,20.45
2022-10-11T07:52:10.186Z,20.34
2022-10-11T07:55:12.712Z,20.17
2022-10-11T07:58:14.979Z,20.14
2022-10-11T08:01:18.125Z,20.21
2022-10-11T08:04:21.663Z,20.72
2022-10-11T08:07:24.541Z,21.14
2022-10-11T08:10:27.816Z,21.06
2022-10-11T08:13:30.143Z,21.26
2022-10-11T08:16:33.892Z,21.90
2022-10-11T08:19:36.051Z,22.50
2022-10-11T08:22:39.254Z,22.52
2022-10-11T08:25:44.592Z,23.03
2022-10-11T08:28:47.197Z,24.80
2022-10-11T08:31:49.462Z,26.54
2022-10-11T08:34:53.767Z,28.01
2022-10-11T08:37:55.943Z,28.90
2022-10-11T08:40:59.683Z,29.74
2022-10-11T08:44:20.143Z,29.59
2022-10-11T08:47:30.761Z,30.18
2022-10-11T08:50:33.204Z,30.78
2022-10-11T08:53:44.876Z,31.48
2022-10-11T08:56:47.315Z,31.39
2022-10-11T08:59:51.747Z,30.19
2022-10-11T09:03:08.547Z,29.35
2022-10-11T09:06:24.240Z,28.31
2022-10-11T09:09:44.672Z,27.46
2022-10-11T09:12:56.783Z,26.86
2022-10-11T09:16:37.643Z,26.71
2022-10-11T09:20:12.466Z,26.71
2022-10-11T09:24:04.474Z,26.68
2022-10-11T09:27:28.977Z,27.01
2022-10-11T09:30:48.013Z,27.24
2022-10-11T09:33:52.248Z,26.96
2022-10-11T09:37:07.097Z,27.05
2022-10-11T09:40:09.873Z,27.05
2022-10-11T09:43:12.418Z,26.80
2022-10-11T09:46:36.967Z,26.73
2022-10-11T09:49:42.837Z,26.49
2022-10-11T09:52:54.171Z,26.84
2022-10-11T09:56:04.577Z,27.11
2022-10-11T09:59:27.610Z,26.88
2022-10-11T10:02:38.441Z,27.02
2022-10-11T10:05:42.523Z,27.14
2022-10-11T10:08:47.206Z,27.01
2022-10-11T10:11:49.869Z,27.13
2022-10-11T10:15:14.245Z,27.35
2022-10-11T10:18:39.065Z,27.07
2022-10-11T10:21:51.049Z,26.36
2022-10-11T10:24:55.829Z,26.51
2022-10-11T10:28:00.857Z,27.10
2022-10-11T10:31:03.545Z,26.57
2022-10-11T10:34:21.179Z,26.88
2022-10-11T10:37:32.334Z,27.00
2022-10-11T10:40:47.850Z,25.81
2022-10-11T10:43:55.717Z,25.38
2022-10-11T10:47:05.846Z,25.08
2022-10-11T10:50:43.288Z,24.89
2022-10-11T10:53:54.084Z,24.79
2022-10-11T10:57:00.924Z,24.53
2022-10-11T11:00:23.271Z,24.36
2022-10-11T11:03:42.504Z,24.66
2022-10-11T11:06:55.294Z,24.83
2022-10-11T11:10:06.994Z,24.51
2022-10-11T11:13:21.437Z,24.57
2022-10-11T11:16:36.022Z,24.52
2022-10-11T11:20:15.685Z,24.87
2022-10-11T11:23:42.505Z,25.31
2022-10-11T11:26:56.218Z,25.52
2022-10-11T11:30:13.778Z,25.80
2022-10-11T11:33:25.096Z,26.09
2022-10-11T11:37:02.458Z,26.25
2022-10-11T11:40:18.144Z,26.38
2022-10-11T11:43:33.855Z,26.19
2022-10-11T11:46:43.887Z,26.25
2022-10-11T11:49:58.056Z,26.09
2022-10-11T11:53:16.413Z,26.47
2022-10-11T11:56:34.422Z,26.21
2022-10-11T11:59:45.627Z,26.44
2022-10-11T12:03:00.278Z,26.79
2022-10-11T12:06:14.993Z,26.81
2022-10-11T12:09:17.175Z,26.28
2022-10-11T12:12:38.241Z,26.20
2022-10-11T12:16:09.863Z,25.98
2022-10-11T12:19:14.782Z,25.72
2022-10-11T12:22:38.472Z,25.05
2022-10-11T12:25:43.479Z,24.83
2022-10-11T12:29:28.481Z,24.46
2022-10-11T12:32:34.613Z,24.42
2022-10-11T12:35:40.104Z,24.18
2022-10-11T12:38:42.833Z,23.78
2022-10-11T12:42:18.350Z,23.43
2022-10-11T12:45:20.800Z,23.22
2022-10-11T12:48:23.288Z,23.07
2022-10-11T12:51:37.297Z,22.80
2022-10-11T12:54:55.936Z,22.65
2022-10-11T12:58:23.758Z,22.47
2022-10-11T13:01:33.217Z,22.29
2022-10-11T13:04:35.792Z,22.34
2022-10-11T13:07:41.416Z,22.47
2022-10-11T13:10:46.260Z,22.60
2022-10-11T13:13:53.242Z,22.92
2022-10-11T13:17:05.103Z,23.00
2022-10-11T13:20:27.787Z,23.11
2022-10-11T13:23:37.806Z,23.30
2022-10-11T13:26:40.673Z,23.28
2022-10-11T13:29:45.136Z,23.34
2022-10-11T13:32:47.830Z,23.31
2022-10-11T13:35:51.265Z,23.33
2022-10-11T13:39:04.259Z,23.30
2022-10-11T13:42:13.799Z,23.29
2022-10-11T13:45:20.283Z,23.48
2022-10-11T13:48:24.477Z,23.60
2022-10-11T13:51:37.272Z,23.58
2022-10-11T13:55:09.090Z,23.45
2022-10-11T13:58:40.542Z,23.51
2022-10-11T14:01:45.357Z,23.25
2022-10-11T14:04:49.042Z,23.12
2022-10-11T14:07:51.350Z,22.90
2022-10-11T14:10:57.797Z,22.68
2022-10-11T14:14:39.934Z,22.36
2022-10-11T14:17:45.196Z,22.11
2022-10-11T14:20:47.531Z,21.78
2022-10-11T14:23:51.960Z,21.64
2022-10-11T14:26:56.263Z,21.59
2022-10-11T14:30:25.122Z,21.39
2022-10-11T14:33:21.430Z,21.20
2022-10-11T14:36:24.025Z,21.13
2022-10-11T14:39:30.680Z,21.01
2022-10-11T14:42:33.368Z,20.91
2022-10-11T14:45:35.648Z,20.79
2022-10-11T14:48:54.299Z,20.72
2022-10-11T14:51:59.489Z,20.58
2022-10-11T14:55:02.260Z,20.35
2022-10-11T14:58:05.639Z,20.29
2022-10-11T15:01:11.685Z,20.31
2022-10-11T15:04:13.876Z,20.24
2022-10-11T15:07:16.416Z,20.09
2022-10-11T15:10:30.155Z,20.11
2022-10-11T15:13:33.031Z,20.04
2022-10-11T15:16:35.994Z,19.98
2022-10-11T15:19:38.568Z,19.83
2022-10-11T15:22:41.112Z,19.87
2022-10-11T15:25:43.760Z,19.71
2022-10-11T15:28:47.350Z,19.69
2022-10-11T15:31:50.447Z,19.70
2022-10-11T15:34:52.649Z,19.60
2022-10-11T15:37:58.428Z,19.60
2022-10-11T15:41:01.128Z,19.47
2022-10-11T15:44:03.722Z,19.52
2022-10-11T15:47:07.893Z,19.53
2022-10-11T15:50:23.325Z,19.39
2022-10-11T15:53:31.091Z,19.36
2022-10-11T15:56:34.209Z,19.46
2022-10-11T15:59:36.507Z,19.43
2022-10-11T16:02:39.627Z,19.29
2022-10-11T16:05:43.618Z,19.20
2022-10-11T16:08:46.019Z,19.27
2022-10-11T16:11:48.427Z,19.29
2022-10-11T16:14:50.979Z,19.25
2022-10-11T16:17:53.600Z,19.10
2022-10-11T16:20:58.392Z,19.04
2022-10-11T16:24:02.251Z,19.08
2022-10-11T16:27:04.696Z,19.00
2022-10-11T16:30:08.327Z,18.93
2022-10-11T16:33:12.736Z,18.80
2022-10-11T16:36:40.186Z,18.68
2022-10-11T16:39:42.595Z,18.72
2022-10-11T16:42:45.481Z,18.66
2022-10-11T16:45:47.708Z,18.60
2022-10-11T16:48:50.522Z,18.49
2022-10-11T16:51:55.337Z,18.51
2022-10-11T16:54:57.964Z,18.43
2022-10-11T16:58:00.289Z,18.47
2022-10-11T17:01:12.781Z,18.45
2022-10-11T17:04:15.711Z,18.45
2022-10-11T17:07:19.703Z,18.46
2022-10-11T17:10:39.288Z,18.43
2022-10-11T17:13:49.352Z,18.43
2022-10-11T17:16:51.583Z,18.32
2022-10-11T17:20:04.443Z,18.27
2022-10-11T17:23:06.714Z,18.25
2022-10-11T17:26:14.142Z,18.29
2022-10-11T17:29:17.294Z,18.34
2022-10-11T17:32:19.941Z,18.30
2022-10-11T17:35:22.230Z,18.16
2022-10-11T17:38:28.778Z,18.25
2022-10-11T17:41:32.387Z,18.16
2022-10-11T17:44:36.078Z,18.21
2022-10-11T17:47:38.325Z,18.16
2022-10-11T17:50:43.397Z,18.16
2022-10-11T17:53:48.577Z,18.12
2022-10-11T17:56:51.241Z,18.12
2022-10-11T17:59:53.448Z,18.09
2022-10-11T18:02:57.348Z,17.85
2022-10-11T18:06:06.558Z,17.88
2022-10-11T18:09:09.016Z,17.85
2022-10-11T18:12:11.550Z,17.82
2022-10-11T18:15:16.147Z,17.86
2022-10-11T18:18:20.194Z,17.83
2022-10-11T18:21:24.364Z,17.69
2022-10-11T18:24:26.856Z,17.44
2022-10-11T18:27:29.096Z,17.70
2022-10-11T18:30:31.672Z,17.58
2022-10-11T18:33:35.745Z,17.60
2022-10-11T18:36:38.693Z,17.53
2022-10-11T18:39:40.907Z,17.37
2022-10-11T18:42:48.795Z,17.44
2022-10-11T18:45:51.005Z,17.38
2022-10-11T18:48:55.245Z,17.30
2022-10-11T18:51:57.452Z,17.14
2022-10-11T18:55:02.762Z,17.21
2022-10-11T18:58:04.992Z,17.17
2022-10-11T19:01:18.282Z,17.12
2022-10-11T19:04:22.337Z,17.04
2022-10-11T19:07:26.058Z,17.02
2022-10-11T19:10:31.409Z,17.05
2022-10-11T19:13:36.134Z,17.11
2022-10-11T19:16:57.040Z,16.96
2022-10-11T19:19:59.600Z,17.03
2022-10-11T19:23:01.831Z,16.97
2022-10-11T19:26:12.984Z,16.89
2022-10-11T19:29:22.055Z,16.83
2022-10-11T19:32:24.570Z,16.65
2022-10-11T19:35:29.363Z,16.61
2022-10-11T19:38:33.844Z,16.67
2022-10-11T19:41:37.224Z,16.64
2022-10-11T19:44:39.942Z,16.58
2022-10-11T19:47:42.681Z,16.54
2022-10-11T19:50:45.335Z,16.51
2022-10-11T19:53:49.963Z,16.49
2022-10-11T19:56:54.584Z,16.39
2022-10-11T19:59:56.878Z,16.41
2022-10-11T20:03:03.944Z,16.47
2022-10-11T20:06:12.094Z,16.52
2022-10-11T20:09:28.972Z,16.54
2022-10-11T20:12:33.339Z,16.56
2022-10-11T20:15:40.662Z,16.53
2022-10-11T20:18:44.081Z,16.55
2022-10-11T20:21:47.711Z,16.03
2022-10-11T20:24:50.632Z,16.43
2022-10-11T20:27:52.908Z,16.42
2022-10-11T20:30:58.865Z,16.43
2022-10-11T20:34:04.195Z,16.39
2022-10-11T20:37:07.197Z,16.45
2022-10-11T20:40:12.533Z,16.34
2022-10-11T20:43:15.524Z,16.37
2022-10-11T20:46:20.752Z,16.26
2022-10-11T20:49:23.217Z,16.26
2022-10-11T20:52:25.651Z,16.22
2022-10-11T20:55:29.532Z,16.04
2022-10-11T20:58:32.082Z,16.09
2022-10-11T21:01:37.752Z,15.98
2022-10-11T21:04:40.043Z,16.05
2022-10-11T21:07:42.495Z,15.89
2022-10-11T21:10:51.816Z,15.97
2022-10-11T21:13:56.304Z,15.91
2022-10-11T21:16:58.600Z,15.73
2022-10-11T21:20:03.612Z,15.84
2022-10-11T21:23:05.915Z,15.81
2022-10-11T21:26:11.905Z,15.66
2022-10-11T21:29:14.213Z,15.75
2022-10-11T21:32:16.810Z,15.56
2022-10-11T21:35:19.296Z,15.59
2022-10-11T21:38:23.009Z,15.66
2022-10-11T21:41:26.792Z,15.64
2022-10-11T21:44:32.379Z,15.62
2022-10-11T21:47:38.860Z,15.58
2022-10-11T21:50:41.736Z,15.55
2022-10-11T21:53:44.031Z,15.53
2022-10-11T21:56:46.706Z,15.48
2022-10-11T21:59:48.919Z,15.34
2022-10-11T22:02:54.708Z,15.37
2022-10-11T22:05:57.348Z,15.26
2022-10-11T22:09:00.581Z,15.32
2022-10-11T22:12:04.108Z,15.09
2022-10-11T22:15:07.009Z,15.13
2022-10-11T22:18:09.460Z,15.20
2022-10-11T22:21:17.601Z,15.03
2022-10-11T22:24:20.169Z,15.10
2022-10-11T22:27:22.390Z,15.06
2022-10-11T22:30:24.872Z,15.02
2022-10-11T22:33:27.134Z,14.94
2022-10-11T22:36:36.217Z,14.89
2022-10-11T22:39:38.428Z,14.75
2022-10-11T22:42:40.960Z,14.72
2022-10-11T22:45:43.307Z,14.80
2022-10-11T22:48:45.834Z,14.74
2022-10-11T22:51:49.463Z,14.75
2022-10-11T22:54:51.976Z,14.72
2022-10-11T22:57:54.622Z,14.68
2022-10-11T23:00:57.128Z,14.65
2022-10-11T23:03:59.592Z,14.61
2022-10-11T23:07:04.937Z,14.45
2022-10-11T23:10:08.221Z,14.56
2022-10-11T23:13:10.652Z,14.43
2022-10-11T23:16:13.705Z,14.42
2022-10-11T23:19:16.330Z,14.41
2022-10-11T23:22:19.108Z,14.39
2022-10-11T23:25:21.813Z,14.38
2022-10-11T23:28:24.143Z,14.51
2022-10-11T23:31:27.120Z,14.40
2022-10-11T23:34:29.336Z,14.40
2022-10-11T23:37:31.830Z,14.37
2022-10-11T23:40:34.086Z,14.41
2022-10-11T23:43:36.604Z,14.48
2022-10-11T23:46:38.835Z,14.47
2022-10-11T23:49:41.319Z,14.42
2022-10-11T23:52:43.593Z,14.42
2022-10-11T23:55:46.101Z,14.29
2022-10-11T23:58:48.528Z,14.40
